Time;durP1;ratioP1;P1;durP2;ratioP2;P2;SDS_P1;SDS_P2;PMS_P1;PMS_P2;Temp;Humidity;BMP_temperature;BMP_pressure;BME280_temperature;BME280_humidity;BME280_pressure;Samples;Min_cycle;Max_cycle;Signal;HPM_P1;HPM_P2
2023/05/22 00:00:23;;;;;;;5.10;4.60;;;;;;;20.43;59.05;97076.72;4901125;29;20290;-24
2023/05/22 00:02:51;;;;;;;5.40;4.90;;;;;;;20.43;58.82;97076.72;4896812;29;20274;-25
2023/05/22 00:05:19;;;;;;;5.30;4.80;;;;;;;20.44;58.97;97083.53;4903897;29;20212;-25
2023/05/22 00:07:46;;;;;;;4.67;4.27;;;;;;;20.44;58.71;97083.53;4901319;29;20207;-25
2023/05/22 00:10:12;;;;;;;5.63;4.83;;;;;;;20.43;58.78;97077.56;4906410;29;20221;-25
2023/05/22 00:12:39;;;;;;;5.10;4.70;;;;;;;20.44;59.06;97073.34;4902882;29;20259;-29
2023/05/22 00:15:06;;;;;;;5.33;4.83;;;;;;;20.43;58.90;97075.00;4905225;29;20221;-24
2023/05/22 00:17:33;;;;;;;5.23;4.80;;;;;;;20.43;58.47;97075.00;4902190;29;20254;-24
2023/05/22 00:20:05;;;;;;;4.90;4.50;;;;;;;20.44;59.09;97074.22;4898844;29;20217;-24
2023/05/22 00:22:34;;;;;;;5.17;4.67;;;;;;;20.43;58.88;97079.28;4896755;29;20217;-25
2023/05/22 00:25:04;;;;;;;5.47;4.97;;;;;;;20.44;59.00;97068.22;4902906;29;20206;-25
2023/05/22 00:27:31;;;;;;;5.27;4.77;;;;;;;20.44;59.04;97068.22;4913068;29;20705;-25
2023/05/22 00:29:58;;;;;;;4.70;4.30;;;;;;;20.44;58.89;97074.22;4899761;29;20242;-25
2023/05/22 00:32:25;;;;;;;4.97;4.57;;;;;;;20.44;58.87;97070.78;4914921;29;20248;-24
2023/05/22 00:34:52;;;;;;;5.13;4.73;;;;;;;20.43;59.14;97071.63;4902394;29;20241;-24
2023/05/22 00:37:19;;;;;;;5.00;4.60;;;;;;;20.43;59.09;97071.63;4892023;29;20235;-25
2023/05/22 00:39:45;;;;;;;4.93;4.53;;;;;;;20.42;58.62;97067.31;4899584;29;20207;-24
2023/05/22 00:42:12;;;;;;;5.07;4.67;;;;;;;20.41;58.79;97063.91;4901070;29;20223;-25
2023/05/22 00:44:39;;;;;;;4.63;4.23;;;;;;;20.42;59.16;97064.75;4892994;29;20202;-25
2023/05/22 00:47:06;;;;;;;5.03;4.60;;;;;;;20.43;58.86;97063.97;4905425;29;20257;-25
2023/05/22 00:49:33;;;;;;;5.17;4.67;;;;;;;20.42;58.81;97065.63;4899329;29;20210;-25
2023/05/22 00:52:00;;;;;;;4.67;4.27;;;;;;;20.39;59.07;97068.09;4902865;29;20236;-25
2023/05/22 00:54:27;;;;;;;5.00;4.50;;;;;;;20.39;58.81;97062.13;4881048;29;20568;-25
2023/05/22 00:56:54;;;;;;;5.20;4.70;;;;;;;20.42;58.95;97065.63;4887233;29;20237;-25
2023/05/22 00:59:21;;;;;;;4.60;4.20;;;;;;;20.42;58.80;97059.66;4904657;29;20202;-25
2023/05/22 01:01:47;;;;;;;4.80;4.37;;;;;;;20.31;58.96;97041.50;4895283;29;20226;-26
2023/05/22 01:04:14;;;;;;;4.90;4.50;;;;;;;20.43;59.07;97071.63;4896221;29;20250;-24
2023/05/22 01:06:41;;;;;;;5.63;4.63;;;;;;;20.43;58.96;97075.00;4906591;29;20699;-24
2023/05/22 01:09:08;;;;;;;4.60;4.20;;;;;;;20.43;58.88;97069.91;4898817;29;20620;-25
2023/05/22 01:12:06;;;;;;;4.77;4.37;;;;;;;20.43;58.90;97075.00;4909674;29;20670;-25
2023/05/22 01:14:34;;;;;;;5.00;4.57;;;;;;;20.43;58.96;97071.63;4892365;29;20210;-25
2023/05/22 01:17:07;;;;;;;5.07;4.57;;;;;;;20.38;59.04;97063.84;4898724;29;20294;-25
2023/05/22 01:20:00;;;;;;;4.57;4.17;;;;;;;20.42;59.14;97070.75;4895623;29;20229;-25
2023/05/22 01:22:58;;;;;;;5.03;4.53;;;;;;;20.44;58.96;97073.34;4903761;29;20221;-25
2023/05/22 01:25:34;;;;;;;5.53;5.03;;;;;;;20.44;59.18;97078.44;4896648;29;20560;-25
2023/05/22 01:28:06;;;;;;;5.60;4.63;;;;;;;20.43;59.11;97077.56;4908137;29;20206;-25
2023/05/22 01:30:42;;;;;;;4.90;4.50;;;;;;;20.44;58.86;97083.53;4907165;29;20301;-25
2023/05/22 01:33:10;;;;;;;4.87;4.33;;;;;;;20.39;59.08;97069.78;4899991;29;20340;-24
2023/05/22 01:35:37;;;;;;;4.50;4.10;;;;;;;20.28;59.46;97064.41;4881264;29;20229;-25
2023/05/22 01:38:03;;;;;;;5.20;4.73;;;;;;;20.32;58.84;97063.69;4882132;29;20210;-25
2023/05/22 01:40:30;;;;;;;5.40;4.67;;;;;;;20.42;59.34;97086.06;4880024;29;20227;-25
2023/05/22 01:42:57;;;;;;;4.93;4.53;;;;;;;20.43;59.04;97082.66;4897484;29;20304;-24
2023/05/22 01:45:24;;;;;;;5.00;4.60;;;;;;;20.43;58.98;97079.28;4905191;29;20210;-25
2023/05/22 01:47:50;;;;;;;5.30;4.63;;;;;;;20.43;59.16;97077.56;4906295;29;20225;-24
2023/05/22 01:50:17;;;;;;;5.20;4.40;;;;;;;20.28;59.11;97054.19;4906386;29;20270;-24
2023/05/22 01:53:03;;;;;;;5.03;4.63;;;;;;;20.33;59.12;97067.06;4889593;29;20289;-25
2023/05/22 01:55:39;;;;;;;5.17;4.63;;;;;;;20.42;59.08;97086.06;4896407;29;20210;-25
2023/05/22 01:58:14;;;;;;;5.40;4.90;;;;;;;20.43;58.92;97090.31;4884479;29;20226;-37
2023/05/22 02:00:42;;;;;;;5.33;4.90;;;;;;;20.26;59.29;97060.97;4882151;29;20278;-25
2023/05/22 02:03:13;;;;;;;5.13;4.70;;;;;;;20.43;59.17;97084.38;4882141;29;20262;-25
2023/05/22 02:05:40;;;;;;;5.53;5.03;;;;;;;20.41;59.10;97078.34;4904906;29;20636;-25
2023/05/22 02:08:06;;;;;;;5.10;4.60;;;;;;;20.40;59.44;97076.63;4902678;29;20657;-24
2023/05/22 02:10:33;;;;;;;4.80;4.40;;;;;;;20.43;59.07;97085.22;4882886;29;20222;-29
2023/05/22 02:12:59;;;;;;;4.80;4.40;;;;;;;20.39;59.55;97077.44;4905191;29;20621;-24
2023/05/22 02:15:26;;;;;;;5.60;5.00;;;;;;;20.43;58.39;97079.28;4890221;29;20609;-25
2023/05/22 02:17:53;;;;;;;4.73;4.33;;;;;;;20.43;59.29;97080.13;4906781;29;20237;-25
2023/05/22 02:20:19;;;;;;;5.40;4.90;;;;;;;20.43;59.08;97079.28;4904173;29;20317;-25
2023/05/22 02:22:46;;;;;;;4.77;4.37;;;;;;;20.42;58.97;97080.06;4905869;29;20202;-25
2023/05/22 02:25:13;;;;;;;5.17;4.67;;;;;;;20.41;59.18;97079.22;4897878;29;20207;-27
2023/05/22 02:27:41;;;;;;;5.63;4.73;;;;;;;20.34;59.19;97062.00;4902871;29;20218;-25
2023/05/22 02:30:09;;;;;;;5.30;4.80;;;;;;;20.41;59.03;97084.34;4903864;29;20572;-25
2023/05/22 02:32:36;;;;;;;5.53;5.03;;;;;;;20.41;59.15;97078.34;4901048;29;20573;-25
2023/05/22 02:35:03;;;;;;;4.67;4.27;;;;;;;20.40;59.28;97082.59;4897795;29;20241;-25
2023/05/22 02:37:30;;;;;;;5.30;4.80;;;;;;;20.41;58.99;97078.34;4900708;29;20202;-25
2023/05/22 02:39:57;;;;;;;5.93;4.50;;;;;;;20.41;59.12;97081.78;4913991;29;20206;-25
2023/05/22 02:42:23;;;;;;;5.00;4.57;;;;;;;20.42;59.16;97083.50;4900871;29;20222;-31
2023/05/22 02:44:50;;;;;;;5.33;4.83;;;;;;;20.42;59.29;97075.84;4890748;29;20210;-25
2023/05/22 02:47:17;;;;;;;4.53;4.13;;;;;;;20.42;59.19;97075.84;4897201;29;20202;-24
2023/05/22 02:49:46;;;;;;;4.77;4.37;;;;;;;20.43;59.29;97079.28;4897219;29;20202;-25
2023/05/22 02:52:13;;;;;;;5.00;4.60;;;;;;;20.42;59.25;97075.84;4902325;29;20210;-25
2023/05/22 02:54:39;;;;;;;4.97;4.57;;;;;;;20.43;59.01;97075.00;4904844;29;20205;-25
2023/05/22 02:57:06;;;;;;;5.40;4.90;;;;;;;20.42;58.92;97078.41;4902914;29;20202;-25
2023/05/22 02:59:35;;;;;;;4.93;4.43;;;;;;;20.43;59.47;97074.16;4903046;29;20617;-25
2023/05/22 03:02:02;;;;;;;4.60;4.20;;;;;;;20.42;59.17;97070.75;4903363;29;20643;-25
2023/05/22 03:04:29;;;;;;;5.07;4.60;;;;;;;20.43;59.23;97077.56;4897239;29;20198;-27
2023/05/22 03:06:55;;;;;;;4.67;4.27;;;;;;;20.43;59.07;97084.38;4896888;29;20202;-25
2023/05/22 03:09:22;;;;;;;4.93;4.53;;;;;;;20.42;59.24;97077.53;4904365;29;20676;-25
2023/05/22 03:11:48;;;;;;;4.90;4.50;;;;;;;20.44;59.06;97089.53;4906921;29;20276;-25
2023/05/22 03:14:15;;;;;;;5.10;4.60;;;;;;;20.43;58.87;97090.31;4903615;29;20233;-24
2023/05/22 03:16:42;;;;;;;4.77;4.37;;;;;;;20.43;59.20;97097.97;4901200;29;20270;-24
2023/05/22 03:19:15;;;;;;;4.80;4.40;;;;;;;20.37;58.78;97086.75;4896896;29;20202;-25
2023/05/22 03:21:44;;;;;;;5.07;4.60;;;;;;;20.44;59.13;97091.19;4904008;29;20707;-28
2023/05/22 03:24:14;;;;;;;4.90;4.50;;;;;;;20.43;58.83;97095.44;4894275;29;20254;-24
2023/05/22 03:26:43;;;;;;;5.20;4.70;;;;;;;20.43;59.03;97099.69;4889807;29;20596;-24
2023/05/22 03:29:10;;;;;;;4.57;4.20;;;;;;;20.42;58.91;97101.38;4907927;29;20695;-25
2023/05/22 03:31:36;;;;;;;4.90;4.50;;;;;;;20.43;59.60;97104.78;4897809;29;20309;-25
2023/05/22 03:34:04;;;;;;;5.13;4.63;;;;;;;20.43;59.06;97107.34;4896683;29;20213;-25
2023/05/22 03:36:34;;;;;;;4.80;4.40;;;;;;;20.43;58.98;97109.91;4896424;29;20198;-25
2023/05/22 03:39:01;;;;;;;4.90;4.50;;;;;;;20.43;59.07;97108.19;4896876;29;20562;-25
2023/05/22 03:41:28;;;;;;;5.00;4.60;;;;;;;20.44;59.08;97107.38;4904301;29;20233;-33
2023/05/22 03:43:56;;;;;;;5.17;4.73;;;;;;;20.44;59.06;97101.41;4896877;29;20199;-24
2023/05/22 03:46:22;;;;;;;4.57;4.13;;;;;;;20.44;59.00;97102.28;4904292;29;20212;-25
2023/05/22 03:48:49;;;;;;;4.90;4.50;;;;;;;20.33;59.05;97069.63;4903020;29;20556;-25
2023/05/22 03:51:16;;;;;;;4.87;4.47;;;;;;;20.44;58.65;97088.66;4904256;29;20237;-25
2023/05/22 03:53:45;;;;;;;5.13;4.73;;;;;;;20.44;59.06;97092.06;4890699;29;20213;-25
2023/05/22 03:56:12;;;;;;;4.57;4.17;;;;;;;20.44;58.88;97097.19;4904331;29;20202;-24
2023/05/22 03:58:38;;;;;;;4.83;4.43;;;;;;;20.43;59.27;97095.44;4895817;29;20210;-25
2023/05/22 04:01:05;;;;;;;5.10;4.70;;;;;;;20.43;58.92;97097.13;4896078;29;20250;-28
2023/05/22 04:03:32;;;;;;;5.23;4.73;;;;;;;20.42;59.20;97098.81;4897078;29;20210;-25
2023/05/22 04:05:58;;;;;;;4.80;4.40;;;;;;;20.43;58.92;97097.13;4907547;29;20210;-24
2023/05/22 04:08:25;;;;;;;5.13;4.73;;;;;;;20.42;59.33;97096.25;4897484;29;20265;-25
2023/05/22 04:10:53;;;;;;;5.40;4.90;;;;;;;20.42;58.97;97096.25;4896306;29;20226;-25
2023/05/22 04:13:19;;;;;;;4.80;4.40;;;;;;;20.42;59.14;97106.47;4896575;29;20198;-31
2023/05/22 04:15:46;;;;;;;4.47;4.07;;;;;;;20.42;58.79;97103.91;4895981;29;20636;-25
2023/05/22 04:18:13;;;;;;;4.77;4.37;;;;;;;20.43;58.73;97109.91;4900064;29;20213;-25
2023/05/22 04:20:39;;;;;;;5.10;4.60;;;;;;;20.42;58.82;97103.91;4896291;29;20282;-25
2023/05/22 04:23:06;;;;;;;5.47;4.97;;;;;;;20.43;58.90;97097.97;4900886;29;20265;-28
2023/05/22 04:25:33;;;;;;;5.40;4.90;;;;;;;20.44;58.92;97101.41;4896134;29;20206;-25
2023/05/22 04:28:02;;;;;;;5.20;4.70;;;;;;;20.43;59.46;97103.09;4899920;29;20731;-25
2023/05/22 04:30:32;;;;;;;4.77;4.37;;;;;;;20.44;58.96;97106.50;4907224;29;20228;-25
2023/05/22 04:32:59;;;;;;;4.73;4.33;;;;;;;20.42;58.90;97101.38;4896241;29;20203;-24
2023/05/22 04:35:28;;;;;;;4.80;4.40;;;;;;;20.43;58.80;97102.25;4896352;29;20210;-25
2023/05/22 04:38:00;;;;;;;4.80;4.40;;;;;;;20.43;58.97;97105.63;4895960;29;20258;-27
2023/05/22 04:40:32;;;;;;;4.80;4.40;;;;;;;20.44;58.75;97106.50;4896259;29;20225;-25
2023/05/22 04:43:00;;;;;;;4.73;4.33;;;;;;;20.44;59.01;97106.50;4895911;29;20301;-29
2023/05/22 04:45:27;;;;;;;4.93;4.53;;;;;;;20.44;58.79;97111.63;4903463;29;20202;-25
2023/05/22 04:47:54;;;;;;;4.97;4.57;;;;;;;20.44;59.00;97111.63;4896264;29;20202;-24
2023/05/22 04:50:22;;;;;;;4.93;4.50;;;;;;;20.43;59.13;97103.09;4895926;29;20724;-27
2023/05/22 04:52:49;;;;;;;5.17;4.73;;;;;;;20.44;58.54;97115.03;4893518;29;20202;-33
2023/05/22 04:55:16;;;;;;;4.63;4.23;;;;;;;20.43;59.11;97118.41;4908389;29;20201;-24
2023/05/22 04:57:43;;;;;;;4.90;4.50;;;;;;;20.44;58.88;97109.94;4902314;29;20591;-25
2023/05/22 05:00:13;;;;;;;5.10;4.63;;;;;;;20.44;58.75;97109.06;4896200;29;20281;-25
2023/05/22 05:02:40;;;;;;;4.70;4.30;;;;;;;20.44;58.78;97109.94;4895894;29;20664;-25
2023/05/22 05:05:07;;;;;;;4.70;4.30;;;;;;;20.44;59.03;97115.03;4903747;29;20235;-25
2023/05/22 05:07:36;;;;;;;4.30;4.00;;;;;;;20.45;58.94;97114.22;4909759;29;20261;-25
2023/05/22 05:10:03;;;;;;;4.80;4.30;;;;;;;20.45;58.97;97114.22;4901173;29;20238;-25
2023/05/22 05:12:30;;;;;;;4.90;4.47;;;;;;;20.44;58.88;97117.59;4899608;29;20198;-28
2023/05/22 05:14:57;;;;;;;4.43;4.03;;;;;;;20.40;58.69;97108.09;4899121;29;20258;-25
2023/05/22 05:17:23;;;;;;;5.03;4.63;;;;;;;20.47;58.49;97120.22;4901323;29;20693;-25
2023/05/22 05:19:50;;;;;;;4.53;4.23;;;;;;;20.45;58.66;97115.88;4898992;29;20274;-25
2023/05/22 05:22:16;;;;;;;5.00;4.60;;;;;;;20.45;58.71;97109.09;4906599;29;20219;-31
2023/05/22 05:24:43;;;;;;;5.10;4.70;;;;;;;20.46;58.90;97112.53;4901239;29;20209;-24
2023/05/22 05:27:10;;;;;;;4.57;4.17;;;;;;;20.42;58.62;97101.38;4906815;29;20198;-25
2023/05/22 05:29:36;;;;;;;4.60;4.20;;;;;;;20.46;58.95;97112.53;4887046;29;20273;-25
2023/05/22 05:32:03;;;;;;;5.20;4.80;;;;;;;20.46;59.01;97113.38;4891374;29;20222;-28
2023/05/22 05:34:30;;;;;;;4.77;4.37;;;;;;;20.45;59.29;97111.66;4906211;29;20203;-25
2023/05/22 05:36:57;;;;;;;4.57;4.27;;;;;;;20.47;59.20;97109.16;4898295;29;20207;-25
2023/05/22 05:39:23;;;;;;;4.93;4.53;;;;;;;20.46;58.83;97110.81;4898981;29;20281;-24
2023/05/22 05:41:50;;;;;;;4.77;4.37;;;;;;;20.44;58.88;97109.94;4910349;29;20591;-25
2023/05/22 05:44:16;;;;;;;4.87;4.47;;;;;;;20.46;58.98;97107.44;4902345;29;20245;-24
2023/05/22 05:46:43;;;;;;;4.40;4.00;;;;;;;20.44;58.63;97109.94;4896513;29;20270;-25
2023/05/22 05:49:10;;;;;;;4.53;4.13;;;;;;;20.45;58.68;97114.22;4903155;29;20317;-29
2023/05/22 05:51:39;;;;;;;4.43;4.10;;;;;;;20.44;58.79;97116.72;4915503;23;20234;-31
2023/05/22 05:54:06;;;;;;;4.67;4.30;;;;;;;20.45;59.06;97113.34;4899595;29;20265;-29
2023/05/22 05:56:32;;;;;;;5.03;4.63;;;;;;;20.45;58.43;97119.31;4896004;29;20202;-31
2023/05/22 05:58:59;;;;;;;4.67;4.27;;;;;;;20.45;58.78;97116.75;4898188;29;20741;-30
2023/05/22 06:01:25;;;;;;;5.00;4.60;;;;;;;20.45;58.87;97108.22;4903390;29;20696;-30
2023/05/22 06:03:52;;;;;;;4.87;4.47;;;;;;;20.45;58.63;97126.97;4898561;29;20297;-33
2023/05/22 06:06:19;;;;;;;4.80;4.40;;;;;;;20.46;58.84;97120.19;4898487;29;20618;-29
2023/05/22 06:08:46;;;;;;;4.90;4.50;;;;;;;20.46;58.95;97125.28;4898254;29;20668;-29
2023/05/22 06:11:12;;;;;;;4.97;4.57;;;;;;;20.46;58.69;97131.25;4891486;29;20226;-29
2023/05/22 06:13:39;;;;;;;4.67;4.27;;;;;;;20.47;58.95;97133.00;4902530;29;20206;-32
2023/05/22 06:16:06;;;;;;;5.00;4.50;;;;;;;20.47;58.91;97127.88;4901956;29;20262;-31
2023/05/22 06:18:32;;;;;;;4.60;4.20;;;;;;;20.47;58.67;97133.00;4900148;29;20254;-31
2023/05/22 06:20:59;;;;;;;4.67;4.30;;;;;;;20.48;58.82;97128.72;4897280;29;20728;-40
2023/05/22 06:23:26;;;;;;;4.47;4.13;;;;;;;20.46;58.34;97125.28;4898466;29;20218;-29
2023/05/22 06:25:52;;;;;;;5.00;4.60;;;;;;;20.47;58.76;97127.88;4897947;29;20552;-29
2023/05/22 06:28:19;;;;;;;4.53;4.13;;;;;;;20.46;58.75;97125.28;4898050;29;20210;-30
2023/05/22 06:30:46;;;;;;;4.40;4.00;;;;;;;20.47;58.79;97132.13;4898955;29;20298;-36
2023/05/22 06:33:13;;;;;;;4.67;4.27;;;;;;;20.46;58.74;97131.25;4904404;29;20250;-29
2023/05/22 06:35:40;;;;;;;4.93;4.43;;;;;;;20.47;58.68;97127.00;4908665;29;20209;-36
2023/05/22 06:38:07;;;;;;;4.60;4.20;;;;;;;20.46;58.34;97131.25;4890748;29;20214;-29
2023/05/22 06:40:33;;;;;;;4.40;4.03;;;;;;;20.46;58.87;97130.41;4896767;29;20285;-29
2023/05/22 06:43:00;;;;;;;4.87;4.47;;;;;;;20.47;58.62;97130.44;4897611;29;20226;-38
2023/05/22 06:45:27;;;;;;;4.70;4.30;;;;;;;20.46;58.47;97136.34;4902324;29;20207;-30
2023/05/22 06:47:53;;;;;;;4.43;4.13;;;;;;;20.47;58.51;97140.66;4908557;29;20213;-30
2023/05/22 06:50:21;;;;;;;4.03;3.73;;;;;;;20.47;58.74;97135.53;4909006;29;20597;-30
2023/05/22 06:52:48;;;;;;;4.50;4.17;;;;;;;20.48;58.57;97137.25;4894691;29;20575;-30
2023/05/22 06:55:15;;;;;;;4.50;4.10;;;;;;;20.48;58.75;97132.16;4897998;29;20207;-29
2023/05/22 06:57:42;;;;;;;4.70;4.30;;;;;;;20.47;58.62;97138.09;4897740;29;20211;-30
2023/05/22 07:00:11;;;;;;;5.27;4.80;;;;;;;20.47;58.74;97135.53;4895183;29;20206;-29
2023/05/22 07:02:38;;;;;;;4.50;4.10;;;;;;;20.47;58.73;97137.22;4897618;29;20233;-31
2023/05/22 07:05:05;;;;;;;4.40;4.07;;;;;;;20.48;58.82;97136.38;4897742;29;20207;-30
2023/05/22 07:07:32;;;;;;;4.50;4.10;;;;;;;20.48;59.02;97134.72;4904750;29;20261;-29
2023/05/22 07:09:58;;;;;;;4.50;4.10;;;;;;;20.48;58.67;97137.25;4893771;29;20635;-30
2023/05/22 07:12:26;;;;;;;4.53;4.13;;;;;;;20.48;58.61;97144.94;4901472;29;20667;-29
2023/05/22 07:14:53;;;;;;;4.47;4.13;;;;;;;20.49;58.87;97140.69;4891616;29;20587;-29
2023/05/22 07:17:20;;;;;;;4.37;4.07;;;;;;;20.48;58.78;97139.81;4891892;29;20255;-30
2023/05/22 07:19:47;;;;;;;4.53;4.13;;;;;;;20.49;58.48;97154.31;4903033;29;20222;-30
2023/05/22 07:22:14;;;;;;;4.40;4.00;;;;;;;20.48;58.68;97141.50;4896260;29;20289;-30
2023/05/22 07:24:40;;;;;;;4.97;4.57;;;;;;;20.47;58.33;97150.00;4901778;29;20222;-33
2023/05/22 07:27:08;;;;;;;4.43;4.03;;;;;;;20.50;58.77;97150.06;4889930;29;20295;-29
2023/05/22 07:29:35;;;;;;;4.70;4.30;;;;;;;20.49;58.67;97151.75;4893884;29;20596;-34
2023/05/22 07:32:01;;;;;;;4.70;4.30;;;;;;;20.48;58.82;97147.47;4904380;29;20305;-29
2023/05/22 07:34:32;;;;;;;4.40;4.10;;;;;;;20.46;59.05;97148.28;4902406;29;20212;-29
2023/05/22 07:37:00;;;;;;;4.93;4.53;;;;;;;20.47;58.55;97140.66;4897845;29;20335;-31
2023/05/22 07:39:26;;;;;;;4.77;4.37;;;;;;;20.47;58.15;97142.31;4901468;29;20687;-30
2023/05/22 07:41:53;;;;;;;4.70;4.30;;;;;;;20.48;58.46;97150.03;4899921;29;20626;-37
2023/05/22 07:44:22;;;;;;;4.33;3.93;;;;;;;20.47;58.15;97150.88;4891134;29;20214;-29
2023/05/22 07:46:48;;;;;;;4.77;4.37;;;;;;;20.47;58.57;97145.75;4902895;29;20211;-29
2023/05/22 07:49:18;;;;;;;4.90;4.40;;;;;;;20.49;58.21;97153.47;4898483;29;20210;-29
2023/05/22 07:51:45;;;;;;;4.43;4.03;;;;;;;20.47;58.49;97138.09;4896786;29;20238;-33
2023/05/22 07:54:13;;;;;;;4.10;3.80;;;;;;;20.48;58.49;97137.25;4897877;29;20636;-31
2023/05/22 07:56:44;;;;;;;3.17;2.90;;;;;;;20.49;58.54;97145.81;4896640;29;20262;-29
2023/05/22 07:59:11;;;;;;;4.50;4.10;;;;;;;20.49;58.61;97141.53;4892936;29;20211;-30
2023/05/22 08:01:39;;;;;;;4.27;3.90;;;;;;;20.48;58.38;97147.47;4897223;29;20226;-28
2023/05/22 08:04:05;;;;;;;4.13;3.83;;;;;;;20.48;58.71;97146.59;4899712;29;20222;-38
2023/05/22 08:06:35;;;;;;;4.73;4.20;;;;;;;20.47;58.50;97137.22;4892048;29;20217;-38
2023/05/22 08:09:03;;;;;;;4.57;4.17;;;;;;;20.49;58.49;97144.09;4896077;29;20246;-29
2023/05/22 08:11:30;;;;;;;4.67;4.27;;;;;;;20.49;58.42;97138.97;4898185;29;20581;-31
2023/05/22 08:13:56;;;;;;;4.33;3.93;;;;;;;20.47;58.49;97138.09;4898334;29;20206;-29
2023/05/22 08:16:23;;;;;;;4.50;4.10;;;;;;;20.49;58.63;97136.44;4907068;29;20250;-32
2023/05/22 08:18:50;;;;;;;4.43;4.03;;;;;;;20.49;58.29;97138.13;4897227;29;20213;-29
2023/05/22 08:21:17;;;;;;;4.20;3.90;;;;;;;20.50;58.28;97137.31;4899643;29;20226;-29
2023/05/22 08:23:43;;;;;;;4.10;3.77;;;;;;;20.50;58.18;97143.28;4893085;29;20647;-30
2023/05/22 08:26:10;;;;;;;4.20;3.90;;;;;;;20.49;58.24;97145.81;4898580;29;20279;-30
2023/05/22 08:28:40;;;;;;;4.47;4.07;;;;;;;20.50;58.34;97150.94;4898933;29;20207;-30
2023/05/22 08:31:07;;;;;;;4.80;4.40;;;;;;;20.48;58.41;97141.50;4896082;29;20668;-29
2023/05/22 08:33:34;;;;;;;4.30;4.00;;;;;;;20.50;58.63;97143.28;4898636;29;20685;-31
2023/05/22 08:36:00;;;;;;;4.27;3.97;;;;;;;20.50;58.45;97143.28;4889481;29;20211;-30
2023/05/22 08:38:27;;;;;;;4.77;4.37;;;;;;;20.50;58.43;97134.75;4901572;29;20257;-29
2023/05/22 08:40:56;;;;;;;4.33;4.03;;;;;;;20.50;58.65;97134.75;4902208;29;20241;-30
2023/05/22 08:43:23;;;;;;;4.07;3.77;;;;;;;20.50;58.48;97140.75;4896529;29;20253;-29
2023/05/22 08:45:54;;;;;;;4.10;3.80;;;;;;;20.48;58.15;97133.84;4900155;29;20644;-30
2023/05/22 08:48:21;;;;;;;4.17;3.77;;;;;;;20.50;58.20;97143.28;4888485;29;20205;-29
2023/05/22 08:50:48;;;;;;;4.33;3.93;;;;;;;20.49;58.54;97138.97;4892063;29;20238;-29
2023/05/22 08:53:14;;;;;;;4.23;3.83;;;;;;;20.52;58.50;97140.78;4883288;29;20351;-30
2023/05/22 08:55:41;;;;;;;4.33;3.93;;;;;;;20.44;58.36;97130.34;4879773;29;20214;-31
2023/05/22 08:58:07;;;;;;;4.23;3.83;;;;;;;20.50;58.32;97137.31;4906054;29;20206;-30
2023/05/22 09:00:34;;;;;;;4.10;3.80;;;;;;;20.51;58.34;97144.13;4887647;29;20260;-29
2023/05/22 09:03:01;;;;;;;4.47;4.07;;;;;;;20.50;58.20;97138.19;4891155;29;20270;-39
2023/05/22 09:05:27;;;;;;;4.03;3.73;;;;;;;20.08;58.27;97068.09;4905215;29;20202;-30
2023/05/22 09:07:55;;;;;;;4.10;3.80;;;;;;;20.51;58.41;97136.47;4897512;29;20272;-30
2023/05/22 09:10:30;;;;;;;4.13;3.83;;;;;;;20.51;58.33;97131.38;4900466;29;20590;-29
2023/05/22 09:13:02;;;;;;;4.17;3.87;;;;;;;20.50;58.44;97133.06;4902964;29;20203;-36
2023/05/22 09:15:32;;;;;;;4.10;3.80;;;;;;;20.51;58.37;97134.78;4899390;29;20261;-35
2023/05/22 09:17:59;;;;;;;4.07;3.77;;;;;;;20.50;58.53;97133.06;4898870;29;20213;-29
2023/05/22 09:20:26;;;;;;;3.70;3.40;;;;;;;20.49;58.32;97125.38;4899536;29;20207;-30
2023/05/22 09:22:53;;;;;;;4.33;3.93;;;;;;;20.50;58.26;97134.75;4902942;29;20275;-29
2023/05/22 09:25:20;;;;;;;3.80;3.50;;;;;;;20.49;58.31;97126.22;4906320;29;20265;-29
2023/05/22 09:27:47;;;;;;;4.27;3.87;;;;;;;20.48;58.33;97124.50;4898098;29;20210;-29
2023/05/22 09:30:17;;;;;;;4.37;3.97;;;;;;;20.49;58.28;97130.47;4895189;29;20240;-29
2023/05/22 09:32:53;;;;;;;3.93;3.63;;;;;;;20.49;58.24;97131.31;4900832;29;20555;-29
2023/05/22 09:35:19;;;;;;;4.10;3.80;;;;;;;20.50;57.91;97124.53;4904129;29;20289;-29
2023/05/22 09:37:46;;;;;;;4.23;3.93;;;;;;;20.50;58.44;97127.97;4903800;29;20210;-29
2023/05/22 09:40:13;;;;;;;4.27;3.93;;;;;;;20.50;58.12;97130.53;4882047;29;20266;-38
2023/05/22 09:42:42;;;;;;;4.10;3.80;;;;;;;20.50;58.35;97132.19;4898827;29;20217;-30
2023/05/22 09:45:09;;;;;;;4.23;3.93;;;;;;;20.50;58.30;97135.63;4911299;29;20248;-34
2023/05/22 09:47:36;;;;;;;3.83;3.53;;;;;;;20.51;58.53;97128.81;4898968;29;20207;-30
2023/05/22 09:50:05;;;;;;;4.27;3.87;;;;;;;20.50;58.14;97130.53;4902750;29;20218;-29
2023/05/22 09:52:35;;;;;;;4.00;3.70;;;;;;;20.51;58.10;97134.78;4899096;29;20230;-29
2023/05/22 09:55:04;;;;;;;4.10;3.77;;;;;;;20.51;58.14;97131.38;4897965;29;20214;-31
2023/05/22 09:57:43;;;;;;;3.80;3.50;;;;;;;20.49;58.07;97130.47;4898488;29;20210;-30
2023/05/22 10:00:14;;;;;;;4.00;3.70;;;;;;;20.51;58.28;97132.25;4901555;29;20277;-36
2023/05/22 10:02:43;;;;;;;4.13;3.83;;;;;;;20.47;58.48;97124.47;4898148;29;20218;-29
2023/05/22 10:05:10;;;;;;;4.17;3.87;;;;;;;20.51;58.35;97131.38;4884386;29;20273;-29
2023/05/22 10:07:48;;;;;;;3.97;3.67;;;;;;;20.51;58.18;97131.38;4904795;29;20214;-29
2023/05/22 10:10:16;;;;;;;4.43;4.03;;;;;;;20.44;58.32;97122.69;4891323;29;20300;-30
2023/05/22 10:12:55;;;;;;;4.23;3.83;;;;;;;20.51;58.24;97131.38;4897461;29;20632;-30
2023/05/22 10:15:22;;;;;;;4.17;3.77;;;;;;;20.51;58.33;97124.59;4892928;29;20214;-29
2023/05/22 10:17:48;;;;;;;4.23;3.83;;;;;;;20.51;58.50;97124.59;4902581;29;20293;-32
2023/05/22 10:20:15;;;;;;;3.90;3.60;;;;;;;20.51;58.61;97122.03;4890885;29;20209;-29
2023/05/22 10:22:42;;;;;;;3.97;3.67;;;;;;;20.50;58.53;97125.41;4903869;29;20442;-30
2023/05/22 10:25:09;;;;;;;4.73;4.23;;;;;;;20.50;58.19;97122.88;4900326;29;20590;-34
2023/05/22 10:27:37;;;;;;;4.20;3.83;;;;;;;20.47;58.29;97115.13;4909108;29;20217;-29
2023/05/22 10:30:12;;;;;;;3.87;3.57;;;;;;;20.51;58.18;97116.06;4896961;29;20206;-29
2023/05/22 10:32:40;;;;;;;4.10;3.80;;;;;;;20.50;58.25;97110.09;4899337;29;20296;-36
2023/05/22 10:35:18;;;;;;;4.00;3.70;;;;;;;20.50;58.28;97115.22;4901230;29;20216;-30
2023/05/22 10:37:52;;;;;;;3.90;3.60;;;;;;;20.50;58.27;97115.22;4901892;29;20218;-29
2023/05/22 10:40:40;;;;;;;4.27;3.87;;;;;;;20.52;58.27;97117.81;4893314;29;20262;-30
2023/05/22 10:43:07;;;;;;;4.67;4.17;;;;;;;20.51;58.17;97114.38;4897997;29;20698;-29
2023/05/22 10:45:35;;;;;;;3.90;3.60;;;;;;;20.51;58.25;97108.41;4897179;29;20213;-40
2023/05/22 10:48:05;;;;;;;4.70;4.30;;;;;;;20.51;58.42;97104.16;4898010;29;20289;-33
2023/05/22 10:50:32;;;;;;;4.50;4.10;;;;;;;20.50;58.29;97107.56;4900496;29;20234;-29
2023/05/22 10:53:21;;;;;;;4.17;3.87;;;;;;;20.51;58.47;97104.16;4897984;29;20264;-29
2023/05/22 10:55:55;;;;;;;3.87;3.57;;;;;;;20.51;58.45;97111.81;4898203;29;20250;-37
2023/05/22 10:58:29;;;;;;;3.90;3.60;;;;;;;20.51;58.39;97104.16;4891528;29;20574;-29
2023/05/22 11:01:13;;;;;;;4.70;4.30;;;;;;;20.51;58.20;97093.94;4893751;29;20297;-29
2023/05/22 11:04:07;;;;;;;4.00;3.70;;;;;;;20.50;58.35;97110.09;4899399;29;20608;-30
2023/05/22 11:06:48;;;;;;;3.80;3.50;;;;;;;20.51;58.04;97103.28;4898927;29;20217;-29
2023/05/22 11:09:30;;;;;;;4.30;3.90;;;;;;;20.50;58.32;97099.03;4908589;29;20206;-30
2023/05/22 11:12:15;;;;;;;3.93;3.63;;;;;;;20.50;58.25;97102.44;4905597;29;20226;-33
2023/05/22 11:14:48;;;;;;;4.03;3.73;;;;;;;20.50;58.34;97093.91;4899468;29;20218;-29
2023/05/22 11:17:21;;;;;;;4.10;3.70;;;;;;;20.51;58.38;97093.06;4897527;29;20669;-29
2023/05/22 11:19:58;;;;;;;4.13;3.83;;;;;;;20.50;58.10;97097.34;4905316;29;20652;-31
2023/05/22 11:22:49;;;;;;;4.07;3.77;;;;;;;20.50;58.28;97097.34;4890432;29;20414;-29
2023/05/22 11:25:19;;;;;;;3.73;3.43;;;;;;;20.50;58.27;97087.13;4880794;29;20614;-33
2023/05/22 11:27:46;;;;;;;3.80;3.50;;;;;;;20.50;58.28;97089.69;4897285;29;20214;-29
2023/05/22 11:30:13;;;;;;;4.13;3.83;;;;;;;20.51;58.28;97091.41;4901736;29;20206;-29
2023/05/22 11:32:46;;;;;;;3.97;3.67;;;;;;;20.39;58.33;97074.88;4902311;29;20258;-33
2023/05/22 11:35:17;;;;;;;3.47;3.27;;;;;;;20.51;58.25;97085.41;4903545;29;20217;-31
2023/05/22 11:37:43;;;;;;;4.00;3.60;;;;;;;20.51;58.39;97088.84;4900947;29;20589;-29
2023/05/22 11:40:14;;;;;;;4.23;3.87;;;;;;;20.52;58.33;97087.16;4898473;29;20246;-33